sensor_id;sensor_type;location;lat;lon;timestamp;P1;durP1;ratioP1;P2;durP2;ratioP2
44578;SDS011;37422;51.402;0.016;2022-11-24T00:01:21;20.65;;;2.90;;
44578;SDS011;37422;51.402;0.016;2022-11-24T00:03:54;15.45;;;2.95;;
44578;SDS011;37422;51.402;0.016;2022-11-24T00:06:27;12.68;;;3.17;;
44578;SDS011;37422;51.402;0.016;2022-11-24T00:08:56;12.32;;;2.60;;
44578;SDS011;37422;51.402;0.016;2022-11-24T00:11:30;14.13;;;2.63;;
44578;SDS011;37422;51.402;0.016;2022-11-24T00:13:58;13.48;;;2.80;;
44578;SDS011;37422;51.402;0.016;2022-11-24T00:16:31;10.20;;;1.88;;
44578;SDS011;37422;51.402;0.016;2022-11-24T00:19:04;14.70;;;3.15;;
44578;SDS011;37422;51.402;0.016;2022-11-24T00:21:35;12.77;;;2.78;;
44578;SDS011;37422;51.402;0.016;2022-11-24T00:24:04;15.93;;;3.30;;
44578;SDS011;37422;51.402;0.016;2022-11-24T00:26:33;13.93;;;2.20;;
44578;SDS011;37422;51.402;0.016;2022-11-24T00:34:02;16.20;;;4.53;;
44578;SDS011;37422;51.402;0.016;2022-11-24T00:36:33;17.17;;;2.35;;
44578;SDS011;37422;51.402;0.016;2022-11-24T00:39:20;13.32;;;3.67;;
44578;SDS011;37422;51.402;0.016;2022-11-24T00:41:48;20.15;;;3.22;;
44578;SDS011;37422;51.402;0.016;2022-11-24T00:44:15;17.23;;;4.78;;
44578;SDS011;37422;51.402;0.016;2022-11-24T00:46:43;14.10;;;3.40;;
44578;SDS011;37422;51.402;0.016;2022-11-24T00:49:11;16.10;;;3.35;;
44578;SDS011;37422;51.402;0.016;2022-11-24T00:51:38;15.40;;;3.75;;
44578;SDS011;37422;51.402;0.016;2022-11-24T00:54:06;13.18;;;2.63;;
44578;SDS011;37422;51.402;0.016;2022-11-24T00:56:34;13.80;;;2.63;;
44578;SDS011;37422;51.402;0.016;2022-11-24T00:59:02;18.90;;;3.38;;
44578;SDS011;37422;51.402;0.016;2022-11-24T01:01:30;17.00;;;2.92;;
44578;SDS011;37422;51.402;0.016;2022-11-24T01:03:58;18.05;;;3.63;;
44578;SDS011;37422;51.402;0.016;2022-11-24T01:06:28;16.67;;;2.95;;
44578;SDS011;37422;51.402;0.016;2022-11-24T01:08:56;11.32;;;2.47;;
44578;SDS011;37422;51.402;0.016;2022-11-24T01:11:25;16.42;;;2.60;;
44578;SDS011;37422;51.402;0.016;2022-11-24T01:13:55;13.98;;;2.45;;
44578;SDS011;37422;51.402;0.016;2022-11-24T01:16:25;13.10;;;3.33;;
44578;SDS011;37422;51.402;0.016;2022-11-24T01:18:56;11.45;;;2.65;;
44578;SDS011;37422;51.402;0.016;2022-11-24T01:21:24;15.18;;;2.83;;
44578;SDS011;37422;51.402;0.016;2022-11-24T01:23:51;18.63;;;3.38;;
44578;SDS011;37422;51.402;0.016;2022-11-24T01:26:20;16.17;;;2.80;;
44578;SDS011;37422;51.402;0.016;2022-11-24T01:28:52;14.48;;;2.35;;
44578;SDS011;37422;51.402;0.016;2022-11-24T01:31:21;14.82;;;3.08;;
44578;SDS011;37422;51.402;0.016;2022-11-24T01:33:49;13.90;;;3.05;;
44578;SDS011;37422;51.402;0.016;2022-11-24T01:36:17;15.18;;;3.45;;
44578;SDS011;37422;51.402;0.016;2022-11-24T01:38:45;13.77;;;2.35;;
44578;SDS011;37422;51.402;0.016;2022-11-24T01:41:13;16.45;;;2.25;;
44578;SDS011;37422;51.402;0.016;2022-11-24T01:48:45;15.20;;;2.22;;
44578;SDS011;37422;51.402;0.016;2022-11-24T01:51:20;17.42;;;4.20;;
44578;SDS011;37422;51.402;0.016;2022-11-24T01:53:53;19.98;;;2.50;;
44578;SDS011;37422;51.402;0.016;2022-11-24T01:56:32;12.60;;;3.47;;
44578;SDS011;37422;51.402;0.016;2022-11-24T01:59:01;17.73;;;2.40;;
44578;SDS011;37422;51.402;0.016;2022-11-24T02:01:33;12.13;;;2.75;;
44578;SDS011;37422;51.402;0.016;2022-11-24T02:04:01;13.60;;;2.92;;
44578;SDS011;37422;51.402;0.016;2022-11-24T02:06:34;13.80;;;3.30;;
44578;SDS011;37422;51.402;0.016;2022-11-24T02:09:10;16.45;;;2.28;;
44578;SDS011;37422;51.402;0.016;2022-11-24T02:11:43;12.90;;;2.03;;
44578;SDS011;37422;51.402;0.016;2022-11-24T02:14:12;16.15;;;3.75;;
44578;SDS011;37422;51.402;0.016;2022-11-24T02:16:46;16.27;;;3.35;;
44578;SDS011;37422;51.402;0.016;2022-11-24T02:22:03;10.90;;;1.95;;
44578;SDS011;37422;51.402;0.016;2022-11-24T02:24:38;8.17;;;2.20;;
44578;SDS011;37422;51.402;0.016;2022-11-24T02:27:13;10.35;;;1.98;;
44578;SDS011;37422;51.402;0.016;2022-11-24T02:29:40;10.32;;;2.03;;
44578;SDS011;37422;51.402;0.016;2022-11-24T02:32:09;13.23;;;2.17;;
44578;SDS011;37422;51.402;0.016;2022-11-24T02:34:38;14.60;;;2.53;;
44578;SDS011;37422;51.402;0.016;2022-11-24T02:37:05;6.35;;;1.63;;
44578;SDS011;37422;51.402;0.016;2022-11-24T02:39:33;10.60;;;3.17;;
44578;SDS011;37422;51.402;0.016;2022-11-24T02:42:03;9.15;;;2.30;;
44578;SDS011;37422;51.402;0.016;2022-11-24T02:44:37;17.08;;;2.20;;
44578;SDS011;37422;51.402;0.016;2022-11-24T02:47:10;13.45;;;2.40;;
44578;SDS011;37422;51.402;0.016;2022-11-24T02:49:38;14.25;;;3.45;;
44578;SDS011;37422;51.402;0.016;2022-11-24T02:52:07;16.05;;;2.45;;
44578;SDS011;37422;51.402;0.016;2022-11-24T02:54:34;13.07;;;2.35;;
44578;SDS011;37422;51.402;0.016;2022-11-24T02:57:03;19.63;;;4.85;;
44578;SDS011;37422;51.402;0.016;2022-11-24T02:59:30;12.95;;;2.60;;
44578;SDS011;37422;51.402;0.016;2022-11-24T03:01:58;20.52;;;4.50;;
44578;SDS011;37422;51.402;0.016;2022-11-24T03:04:26;19.70;;;3.63;;
44578;SDS011;37422;51.402;0.016;2022-11-24T03:06:54;11.20;;;2.95;;
44578;SDS011;37422;51.402;0.016;2022-11-24T03:09:21;16.05;;;2.88;;
44578;SDS011;37422;51.402;0.016;2022-11-24T03:11:49;11.63;;;2.92;;
44578;SDS011;37422;51.402;0.016;2022-11-24T03:14:17;19.05;;;2.53;;
44578;SDS011;37422;51.402;0.016;2022-11-24T03:16:44;16.50;;;2.28;;
44578;SDS011;37422;51.402;0.016;2022-11-24T03:19:12;25.40;;;4.63;;
44578;SDS011;37422;51.402;0.016;2022-11-24T03:21:40;15.88;;;2.58;;
44578;SDS011;37422;51.402;0.016;2022-11-24T03:24:07;23.38;;;4.00;;
44578;SDS011;37422;51.402;0.016;2022-11-24T03:26:35;27.52;;;3.40;;
44578;SDS011;37422;51.402;0.016;2022-11-24T03:29:03;28.15;;;3.10;;
44578;SDS011;37422;51.402;0.016;2022-11-24T03:31:30;22.55;;;4.75;;
44578;SDS011;37422;51.402;0.016;2022-11-24T03:33:58;19.75;;;3.13;;
44578;SDS011;37422;51.402;0.016;2022-11-24T03:36:26;13.90;;;3.75;;
44578;SDS011;37422;51.402;0.016;2022-11-24T03:38:54;17.58;;;3.30;;
44578;SDS011;37422;51.402;0.016;2022-11-24T03:41:21;27.77;;;3.45;;
44578;SDS011;37422;51.402;0.016;2022-11-24T03:43:49;19.77;;;3.05;;
44578;SDS011;37422;51.402;0.016;2022-11-24T03:46:17;26.75;;;3.80;;
44578;SDS011;37422;51.402;0.016;2022-11-24T03:48:45;21.33;;;3.38;;
44578;SDS011;37422;51.402;0.016;2022-11-24T03:51:12;22.10;;;3.97;;
44578;SDS011;37422;51.402;0.016;2022-11-24T03:53:40;18.85;;;4.63;;
44578;SDS011;37422;51.402;0.016;2022-11-24T03:56:08;15.18;;;3.08;;
44578;SDS011;37422;51.402;0.016;2022-11-24T03:58:35;19.00;;;4.50;;
44578;SDS011;37422;51.402;0.016;2022-11-24T04:01:03;18.60;;;3.60;;
44578;SDS011;37422;51.402;0.016;2022-11-24T04:03:31;15.65;;;3.92;;
44578;SDS011;37422;51.402;0.016;2022-11-24T04:05:58;18.73;;;3.20;;
44578;SDS011;37422;51.402;0.016;2022-11-24T04:08:26;20.25;;;3.70;;
44578;SDS011;37422;51.402;0.016;2022-11-24T04:10:54;24.80;;;3.90;;
44578;SDS011;37422;51.402;0.016;2022-11-24T04:13:23;23.15;;;3.90;;
44578;SDS011;37422;51.402;0.016;2022-11-24T04:15:51;28.40;;;2.97;;
44578;SDS011;37422;51.402;0.016;2022-11-24T04:18:19;18.15;;;3.53;;
44578;SDS011;37422;51.402;0.016;2022-11-24T04:20:48;13.48;;;2.80;;
44578;SDS011;37422;51.402;0.016;2022-11-24T04:23:17;20.45;;;4.72;;
44578;SDS011;37422;51.402;0.016;2022-11-24T04:25:45;19.85;;;3.70;;
44578;SDS011;37422;51.402;0.016;2022-11-24T04:28:12;20.70;;;4.65;;
44578;SDS011;37422;51.402;0.016;2022-11-24T04:30:40;27.73;;;4.85;;
44578;SDS011;37422;51.402;0.016;2022-11-24T04:33:11;22.38;;;3.92;;
44578;SDS011;37422;51.402;0.016;2022-11-24T04:35:39;19.10;;;4.57;;
44578;SDS011;37422;51.402;0.016;2022-11-24T04:38:07;15.73;;;3.13;;
44578;SDS011;37422;51.402;0.016;2022-11-24T04:40:35;21.27;;;3.80;;
44578;SDS011;37422;51.402;0.016;2022-11-24T04:43:03;35.92;;;5.45;;
44578;SDS011;37422;51.402;0.016;2022-11-24T04:45:31;19.23;;;4.20;;
44578;SDS011;37422;51.402;0.016;2022-11-24T04:47:58;13.25;;;2.28;;
44578;SDS011;37422;51.402;0.016;2022-11-24T04:50:26;20.02;;;4.53;;
44578;SDS011;37422;51.402;0.016;2022-11-24T04:52:54;23.50;;;4.45;;
44578;SDS011;37422;51.402;0.016;2022-11-24T04:55:22;24.08;;;4.47;;
44578;SDS011;37422;51.402;0.016;2022-11-24T04:57:49;24.40;;;6.78;;
44578;SDS011;37422;51.402;0.016;2022-11-24T05:00:17;26.98;;;4.60;;
44578;SDS011;37422;51.402;0.016;2022-11-24T05:02:48;19.95;;;3.75;;
44578;SDS011;37422;51.402;0.016;2022-11-24T05:05:16;23.90;;;4.53;;
44578;SDS011;37422;51.402;0.016;2022-11-24T05:07:43;25.00;;;5.82;;
44578;SDS011;37422;51.402;0.016;2022-11-24T05:10:11;21.25;;;3.40;;
44578;SDS011;37422;51.402;0.016;2022-11-24T05:12:58;21.58;;;4.35;;
44578;SDS011;37422;51.402;0.016;2022-11-24T05:15:25;27.88;;;3.72;;
44578;SDS011;37422;51.402;0.016;2022-11-24T05:17:53;20.48;;;3.72;;
44578;SDS011;37422;51.402;0.016;2022-11-24T05:20:21;27.88;;;5.65;;
44578;SDS011;37422;51.402;0.016;2022-11-24T05:22:50;25.75;;;3.80;;
44578;SDS011;37422;51.402;0.016;2022-11-24T05:25:17;21.50;;;3.35;;
44578;SDS011;37422;51.402;0.016;2022-11-24T05:27:45;16.55;;;3.50;;
44578;SDS011;37422;51.402;0.016;2022-11-24T05:30:13;18.75;;;3.70;;
44578;SDS011;37422;51.402;0.016;2022-11-24T05:32:40;17.98;;;5.03;;
44578;SDS011;37422;51.402;0.016;2022-11-24T05:35:08;18.25;;;3.38;;
44578;SDS011;37422;51.402;0.016;2022-11-24T05:37:36;32.40;;;5.65;;
44578;SDS011;37422;51.402;0.016;2022-11-24T05:40:04;21.92;;;5.45;;
44578;SDS011;37422;51.402;0.016;2022-11-24T05:42:32;29.33;;;6.18;;
44578;SDS011;37422;51.402;0.016;2022-11-24T05:45:14;19.27;;;4.05;;
44578;SDS011;37422;51.402;0.016;2022-11-24T05:47:44;26.17;;;5.03;;
44578;SDS011;37422;51.402;0.016;2022-11-24T05:50:13;23.73;;;5.75;;
44578;SDS011;37422;51.402;0.016;2022-11-24T05:52:43;27.48;;;5.43;;
44578;SDS011;37422;51.402;0.016;2022-11-24T05:55:11;25.05;;;6.22;;
44578;SDS011;37422;51.402;0.016;2022-11-24T05:57:45;17.90;;;3.08;;
44578;SDS011;37422;51.402;0.016;2022-11-24T06:00:13;23.38;;;5.05;;
44578;SDS011;37422;51.402;0.016;2022-11-24T06:02:43;26.98;;;5.57;;
44578;SDS011;37422;51.402;0.016;2022-11-24T06:05:11;30.92;;;4.38;;
44578;SDS011;37422;51.402;0.016;2022-11-24T06:07:39;28.52;;;6.03;;
44578;SDS011;37422;51.402;0.016;2022-11-24T06:10:07;21.80;;;4.90;;
44578;SDS011;37422;51.402;0.016;2022-11-24T06:12:35;24.77;;;3.97;;
44578;SDS011;37422;51.402;0.016;2022-11-24T06:15:02;25.20;;;4.75;;
44578;SDS011;37422;51.402;0.016;2022-11-24T06:17:30;40.33;;;6.43;;
44578;SDS011;37422;51.402;0.016;2022-11-24T06:19:58;17.48;;;3.70;;
44578;SDS011;37422;51.402;0.016;2022-11-24T06:22:29;20.60;;;5.32;;
44578;SDS011;37422;51.402;0.016;2022-11-24T06:24:56;20.73;;;5.57;;
44578;SDS011;37422;51.402;0.016;2022-11-24T06:27:24;23.10;;;5.25;;
44578;SDS011;37422;51.402;0.016;2022-11-24T06:29:52;24.67;;;4.95;;
44578;SDS011;37422;51.402;0.016;2022-11-24T06:32:20;27.67;;;4.55;;
44578;SDS011;37422;51.402;0.016;2022-11-24T06:34:50;24.15;;;4.45;;
44578;SDS011;37422;51.402;0.016;2022-11-24T06:37:18;20.98;;;3.90;;
44578;SDS011;37422;51.402;0.016;2022-11-24T06:39:45;25.25;;;5.88;;
44578;SDS011;37422;51.402;0.016;2022-11-24T06:42:13;22.55;;;5.90;;
44578;SDS011;37422;51.402;0.016;2022-11-24T06:44:45;32.35;;;4.82;;
44578;SDS011;37422;51.402;0.016;2022-11-24T06:47:13;19.58;;;3.67;;
44578;SDS011;37422;51.402;0.016;2022-11-24T06:49:41;26.42;;;4.22;;
44578;SDS011;37422;51.402;0.016;2022-11-24T06:52:09;22.08;;;5.55;;
44578;SDS011;37422;51.402;0.016;2022-11-24T06:54:36;33.05;;;5.97;;
44578;SDS011;37422;51.402;0.016;2022-11-24T06:57:04;26.02;;;4.68;;
44578;SDS011;37422;51.402;0.016;2022-11-24T06:59:32;31.73;;;5.53;;
44578;SDS011;37422;51.402;0.016;2022-11-24T07:02:00;26.42;;;4.55;;
44578;SDS011;37422;51.402;0.016;2022-11-24T07:04:28;27.10;;;5.03;;
44578;SDS011;37422;51.402;0.016;2022-11-24T07:06:56;29.30;;;6.40;;
44578;SDS011;37422;51.402;0.016;2022-11-24T07:09:23;23.33;;;4.75;;
44578;SDS011;37422;51.402;0.016;2022-11-24T07:11:53;28.88;;;6.38;;
44578;SDS011;37422;51.402;0.016;2022-11-24T07:14:22;27.50;;;5.63;;
44578;SDS011;37422;51.402;0.016;2022-11-24T07:16:50;22.33;;;4.30;;
44578;SDS011;37422;51.402;0.016;2022-11-24T07:19:17;19.20;;;4.10;;
44578;SDS011;37422;51.402;0.016;2022-11-24T07:21:51;29.40;;;7.13;;
44578;SDS011;37422;51.402;0.016;2022-11-24T07:24:18;22.63;;;4.10;;
44578;SDS011;37422;51.402;0.016;2022-11-24T07:26:46;23.63;;;5.50;;
44578;SDS011;37422;51.402;0.016;2022-11-24T07:29:13;31.73;;;4.60;;
44578;SDS011;37422;51.402;0.016;2022-11-24T07:31:41;27.25;;;4.45;;
44578;SDS011;37422;51.402;0.016;2022-11-24T07:34:09;35.35;;;6.50;;
44578;SDS011;37422;51.402;0.016;2022-11-24T07:36:37;30.15;;;5.47;;
44578;SDS011;37422;51.402;0.016;2022-11-24T07:39:05;25.45;;;5.18;;
44578;SDS011;37422;51.402;0.016;2022-11-24T07:41:33;34.60;;;5.72;;
44578;SDS011;37422;51.402;0.016;2022-11-24T07:44:00;30.90;;;7.03;;
44578;SDS011;37422;51.402;0.016;2022-11-24T07:46:28;28.08;;;5.10;;
44578;SDS011;37422;51.402;0.016;2022-11-24T07:48:56;26.95;;;5.20;;
44578;SDS011;37422;51.402;0.016;2022-11-24T07:51:23;28.80;;;5.30;;
44578;SDS011;37422;51.402;0.016;2022-11-24T07:53:51;27.95;;;6.07;;
44578;SDS011;37422;51.402;0.016;2022-11-24T07:56:19;28.55;;;6.00;;
44578;SDS011;37422;51.402;0.016;2022-11-24T07:58:46;21.70;;;4.53;;
44578;SDS011;37422;51.402;0.016;2022-11-24T08:01:19;38.70;;;7.75;;
44578;SDS011;37422;51.402;0.016;2022-11-24T08:03:46;36.25;;;6.93;;
44578;SDS011;37422;51.402;0.016;2022-11-24T08:06:14;19.30;;;4.13;;
44578;SDS011;37422;51.402;0.016;2022-11-24T08:08:58;23.58;;;5.03;;
44578;SDS011;37422;51.402;0.016;2022-11-24T08:11:26;34.13;;;6.25;;
44578;SDS011;37422;51.402;0.016;2022-11-24T08:13:54;30.08;;;5.35;;
44578;SDS011;37422;51.402;0.016;2022-11-24T08:16:22;32.42;;;4.25;;
44578;SDS011;37422;51.402;0.016;2022-11-24T08:18:50;33.30;;;6.25;;
44578;SDS011;37422;51.402;0.016;2022-11-24T08:21:20;32.28;;;5.97;;
44578;SDS011;37422;51.402;0.016;2022-11-24T08:23:53;26.83;;;6.63;;
44578;SDS011;37422;51.402;0.016;2022-11-24T08:26:24;27.67;;;4.97;;
44578;SDS011;37422;51.402;0.016;2022-11-24T08:28:55;29.17;;;5.93;;
44578;SDS011;37422;51.402;0.016;2022-11-24T08:31:25;22.15;;;4.30;;
44578;SDS011;37422;51.402;0.016;2022-11-24T08:34:00;28.50;;;5.00;;
44578;SDS011;37422;51.402;0.016;2022-11-24T08:36:28;25.48;;;6.05;;
44578;SDS011;37422;51.402;0.016;2022-11-24T08:38:57;28.65;;;5.68;;
44578;SDS011;37422;51.402;0.016;2022-11-24T08:41:26;25.35;;;3.95;;
44578;SDS011;37422;51.402;0.016;2022-11-24T08:43:54;20.27;;;5.03;;
44578;SDS011;37422;51.402;0.016;2022-11-24T08:46:22;30.55;;;6.53;;
44578;SDS011;37422;51.402;0.016;2022-11-24T08:48:51;23.75;;;4.05;;
44578;SDS011;37422;51.402;0.016;2022-11-24T08:51:21;19.42;;;6.00;;
44578;SDS011;37422;51.402;0.016;2022-11-24T08:53:58;27.02;;;5.80;;
44578;SDS011;37422;51.402;0.016;2022-11-24T08:56:27;36.95;;;7.50;;
44578;SDS011;37422;51.402;0.016;2022-11-24T08:58:57;35.22;;;7.30;;
44578;SDS011;37422;51.402;0.016;2022-11-24T09:01:25;27.98;;;4.80;;
44578;SDS011;37422;51.402;0.016;2022-11-24T09:03:54;26.02;;;7.40;;
44578;SDS011;37422;51.402;0.016;2022-11-24T09:06:23;35.22;;;5.30;;
44578;SDS011;37422;51.402;0.016;2022-11-24T09:08:52;20.83;;;4.55;;
44578;SDS011;37422;51.402;0.016;2022-11-24T09:11:22;27.45;;;6.00;;
44578;SDS011;37422;51.402;0.016;2022-11-24T09:13:50;29.02;;;6.68;;
44578;SDS011;37422;51.402;0.016;2022-11-24T09:16:19;32.83;;;7.35;;
44578;SDS011;37422;51.402;0.016;2022-11-24T09:19:02;27.58;;;5.20;;
44578;SDS011;37422;51.402;0.016;2022-11-24T09:21:31;28.38;;;5.75;;
44578;SDS011;37422;51.402;0.016;2022-11-24T09:24:02;35.25;;;7.88;;
44578;SDS011;37422;51.402;0.016;2022-11-24T09:26:31;27.10;;;4.88;;
44578;SDS011;37422;51.402;0.016;2022-11-24T09:29:02;27.95;;;4.65;;
44578;SDS011;37422;51.402;0.016;2022-11-24T09:31:32;28.20;;;4.93;;
44578;SDS011;37422;51.402;0.016;2022-11-24T09:34:03;48.92;;;7.07;;
44578;SDS011;37422;51.402;0.016;2022-11-24T09:36:33;26.48;;;4.93;;
44578;SDS011;37422;51.402;0.016;2022-11-24T09:39:01;24.95;;;5.10;;
44578;SDS011;37422;51.402;0.016;2022-11-24T09:41:42;35.85;;;6.00;;
44578;SDS011;37422;51.402;0.016;2022-11-24T09:47:00;29.80;;;5.60;;
44578;SDS011;37422;51.402;0.016;2022-11-24T09:49:44;41.63;;;7.15;;
44578;SDS011;37422;51.402;0.016;2022-11-24T09:52:40;35.33;;;8.27;;
44578;SDS011;37422;51.402;0.016;2022-11-24T09:55:34;31.83;;;8.68;;
44578;SDS011;37422;51.402;0.016;2022-11-24T10:01:03;33.78;;;7.32;;
44578;SDS011;37422;51.402;0.016;2022-11-24T10:03:43;28.48;;;5.95;;
44578;SDS011;37422;51.402;0.016;2022-11-24T10:11:46;31.17;;;7.40;;
44578;SDS011;37422;51.402;0.016;2022-11-24T10:20:14;42.70;;;7.13;;
44578;SDS011;37422;51.402;0.016;2022-11-24T10:25:45;29.25;;;5.72;;
44578;SDS011;37422;51.402;0.016;2022-11-24T10:28:28;36.90;;;7.97;;
44578;SDS011;37422;51.402;0.016;2022-11-24T10:33:50;33.33;;;7.22;;
44578;SDS011;37422;51.402;0.016;2022-11-24T10:36:28;37.58;;;9.20;;
44578;SDS011;37422;51.402;0.016;2022-11-24T10:39:12;40.53;;;8.15;;
44578;SDS011;37422;51.402;0.016;2022-11-24T10:41:51;35.78;;;8.18;;
44578;SDS011;37422;51.402;0.016;2022-11-24T10:44:32;44.47;;;9.10;;
44578;SDS011;37422;51.402;0.016;2022-11-24T10:47:00;39.80;;;8.60;;
44578;SDS011;37422;51.402;0.016;2022-11-24T10:49:29;38.65;;;11.20;;
44578;SDS011;37422;51.402;0.016;2022-11-24T10:52:11;32.80;;;9.35;;
44578;SDS011;37422;51.402;0.016;2022-11-24T10:54:57;40.17;;;7.53;;
44578;SDS011;37422;51.402;0.016;2022-11-24T10:57:27;36.17;;;10.02;;
44578;SDS011;37422;51.402;0.016;2022-11-24T11:02:26;28.48;;;6.85;;
44578;SDS011;37422;51.402;0.016;2022-11-24T11:05:47;33.70;;;8.35;;
44578;SDS011;37422;51.402;0.016;2022-11-24T11:10:43;25.73;;;6.07;;
44578;SDS011;37422;51.402;0.016;2022-11-24T11:13:28;32.20;;;8.43;;
44578;SDS011;37422;51.402;0.016;2022-11-24T11:15:57;39.63;;;7.32;;
44578;SDS011;37422;51.402;0.016;2022-11-24T11:18:32;38.90;;;8.70;;
44578;SDS011;37422;51.402;0.016;2022-11-24T11:21:03;38.85;;;6.93;;
44578;SDS011;37422;51.402;0.016;2022-11-24T11:23:32;35.17;;;7.90;;
44578;SDS011;37422;51.402;0.016;2022-11-24T11:31:59;33.50;;;7.40;;
44578;SDS011;37422;51.402;0.016;2022-11-24T11:35:02;34.85;;;5.65;;
44578;SDS011;37422;51.402;0.016;2022-11-24T11:37:30;34.20;;;7.30;;
44578;SDS011;37422;51.402;0.016;2022-11-24T11:39:59;30.38;;;5.93;;
44578;SDS011;37422;51.402;0.016;2022-11-24T11:45:23;31.17;;;5.65;;
44578;SDS011;37422;51.402;0.016;2022-11-24T11:56:28;28.55;;;5.53;;
44578;SDS011;37422;51.402;0.016;2022-11-24T11:59:04;27.98;;;4.45;;
44578;SDS011;37422;51.402;0.016;2022-11-24T12:07:10;29.60;;;5.70;;
44578;SDS011;37422;51.402;0.016;2022-11-24T12:09:58;26.27;;;5.10;;
44578;SDS011;37422;51.402;0.016;2022-11-24T12:12:46;22.17;;;4.90;;
44578;SDS011;37422;51.402;0.016;2022-11-24T12:18:38;13.00;;;3.33;;
44578;SDS011;37422;51.402;0.016;2022-11-24T12:35:28;29.77;;;5.43;;
44578;SDS011;37422;51.402;0.016;2022-11-24T12:43:54;20.13;;;4.53;;
44578;SDS011;37422;51.402;0.016;2022-11-24T12:51:58;19.10;;;4.28;;
44578;SDS011;37422;51.402;0.016;2022-11-24T12:54:56;32.25;;;5.82;;
44578;SDS011;37422;51.402;0.016;2022-11-24T13:00:06;21.92;;;5.28;;
44578;SDS011;37422;51.402;0.016;2022-11-24T13:08:30;27.67;;;6.45;;
44578;SDS011;37422;51.402;0.016;2022-11-24T13:17:31;26.27;;;4.30;;
44578;SDS011;37422;51.402;0.016;2022-11-24T13:23:00;28.98;;;6.78;;
44578;SDS011;37422;51.402;0.016;2022-11-24T13:25:31;22.98;;;3.92;;
44578;SDS011;37422;51.402;0.016;2022-11-24T13:28:03;21.70;;;4.15;;
44578;SDS011;37422;51.402;0.016;2022-11-24T13:46:54;32.00;;;5.55;;
44578;SDS011;37422;51.402;0.016;2022-11-24T13:58:47;25.67;;;4.65;;
44578;SDS011;37422;51.402;0.016;2022-11-24T14:01:00;30.33;;;5.63;;
44578;SDS011;37422;51.402;0.016;2022-11-24T14:07:04;25.10;;;4.28;;
44578;SDS011;37422;51.402;0.016;2022-11-24T14:09:49;19.45;;;4.72;;
44578;SDS011;37422;51.402;0.016;2022-11-24T14:12:24;24.60;;;5.00;;
44578;SDS011;37422;51.402;0.016;2022-11-24T14:18:19;28.58;;;4.55;;
44578;SDS011;37422;51.402;0.016;2022-11-24T14:20:48;20.63;;;3.97;;
44578;SDS011;37422;51.402;0.016;2022-11-24T14:23:19;24.33;;;4.72;;
44578;SDS011;37422;51.402;0.016;2022-11-24T14:25:48;32.38;;;4.63;;
44578;SDS011;37422;51.402;0.016;2022-11-24T14:28:23;30.97;;;4.40;;
44578;SDS011;37422;51.402;0.016;2022-11-24T14:31:06;26.08;;;4.47;;
44578;SDS011;37422;51.402;0.016;2022-11-24T14:33:36;22.10;;;4.95;;
44578;SDS011;37422;51.402;0.016;2022-11-24T14:36:03;33.65;;;5.80;;
44578;SDS011;37422;51.402;0.016;2022-11-24T14:38:32;24.23;;;4.78;;
44578;SDS011;37422;51.402;0.016;2022-11-24T14:41:11;21.80;;;5.05;;
44578;SDS011;37422;51.402;0.016;2022-11-24T14:43:49;26.63;;;4.13;;
44578;SDS011;37422;51.402;0.016;2022-11-24T14:46:17;16.60;;;4.15;;
44578;SDS011;37422;51.402;0.016;2022-11-24T14:48:46;26.55;;;4.90;;
44578;SDS011;37422;51.402;0.016;2022-11-24T14:53:50;25.05;;;4.65;;
44578;SDS011;37422;51.402;0.016;2022-11-24T14:56:34;22.48;;;4.88;;
44578;SDS011;37422;51.402;0.016;2022-11-24T14:59:18;32.08;;;5.40;;
44578;SDS011;37422;51.402;0.016;2022-11-24T15:01:47;18.98;;;4.00;;
44578;SDS011;37422;51.402;0.016;2022-11-24T15:09:59;27.13;;;5.57;;
44578;SDS011;37422;51.402;0.016;2022-11-24T15:12:36;26.83;;;4.70;;
44578;SDS011;37422;51.402;0.016;2022-11-24T15:17:44;20.52;;;5.18;;
44578;SDS011;37422;51.402;0.016;2022-11-24T15:20:55;22.83;;;5.07;;
44578;SDS011;37422;51.402;0.016;2022-11-24T15:23:26;24.25;;;5.10;;
44578;SDS011;37422;51.402;0.016;2022-11-24T15:25:56;24.27;;;5.03;;
44578;SDS011;37422;51.402;0.016;2022-11-24T15:28:27;21.25;;;4.10;;
44578;SDS011;37422;51.402;0.016;2022-11-24T15:31:00;27.88;;;4.43;;
44578;SDS011;37422;51.402;0.016;2022-11-24T15:33:29;21.27;;;4.50;;
44578;SDS011;37422;51.402;0.016;2022-11-24T15:35:58;31.40;;;6.45;;
44578;SDS011;37422;51.402;0.016;2022-11-24T15:38:26;18.67;;;4.10;;
44578;SDS011;37422;51.402;0.016;2022-11-24T15:40:54;17.95;;;4.40;;
44578;SDS011;37422;51.402;0.016;2022-11-24T15:43:29;23.25;;;4.90;;
44578;SDS011;37422;51.402;0.016;2022-11-24T15:45:57;27.35;;;4.40;;
44578;SDS011;37422;51.402;0.016;2022-11-24T15:48:26;19.85;;;3.80;;
44578;SDS011;37422;51.402;0.016;2022-11-24T15:50:55;23.20;;;3.78;;
44578;SDS011;37422;51.402;0.016;2022-11-24T15:53:28;26.05;;;5.68;;
44578;SDS011;37422;51.402;0.016;2022-11-24T15:56:06;16.83;;;4.60;;
44578;SDS011;37422;51.402;0.016;2022-11-24T15:58:38;18.63;;;4.05;;
44578;SDS011;37422;51.402;0.016;2022-11-24T16:01:06;25.38;;;6.13;;
44578;SDS011;37422;51.402;0.016;2022-11-24T16:03:36;25.05;;;4.68;;
44578;SDS011;37422;51.402;0.016;2022-11-24T16:06:14;20.48;;;6.07;;
44578;SDS011;37422;51.402;0.016;2022-11-24T16:08:51;32.00;;;5.03;;
44578;SDS011;37422;51.402;0.016;2022-11-24T16:11:20;24.77;;;4.18;;
44578;SDS011;37422;51.402;0.016;2022-11-24T16:13:48;23.05;;;4.60;;
44578;SDS011;37422;51.402;0.016;2022-11-24T16:16:20;11.93;;;2.97;;
44578;SDS011;37422;51.402;0.016;2022-11-24T16:18:53;26.35;;;4.80;;
44578;SDS011;37422;51.402;0.016;2022-11-24T16:21:21;15.98;;;4.10;;
44578;SDS011;37422;51.402;0.016;2022-11-24T16:23:49;17.20;;;3.33;;
44578;SDS011;37422;51.402;0.016;2022-11-24T16:26:16;8.95;;;2.75;;
44578;SDS011;37422;51.402;0.016;2022-11-24T16:28:47;11.45;;;2.47;;
44578;SDS011;37422;51.402;0.016;2022-11-24T16:31:18;15.30;;;2.95;;
44578;SDS011;37422;51.402;0.016;2022-11-24T16:33:46;14.80;;;2.22;;
44578;SDS011;37422;51.402;0.016;2022-11-24T16:36:14;15.80;;;1.88;;
44578;SDS011;37422;51.402;0.016;2022-11-24T16:38:44;7.05;;;2.00;;
44578;SDS011;37422;51.402;0.016;2022-11-24T16:41:12;6.75;;;2.45;;
44578;SDS011;37422;51.402;0.016;2022-11-24T16:43:40;7.57;;;1.80;;
44578;SDS011;37422;51.402;0.016;2022-11-24T16:48:51;11.90;;;2.00;;
44578;SDS011;37422;51.402;0.016;2022-11-24T16:51:21;13.90;;;2.50;;
44578;SDS011;37422;51.402;0.016;2022-11-24T16:53:55;9.45;;;1.38;;
44578;SDS011;37422;51.402;0.016;2022-11-24T16:56:30;10.85;;;1.50;;
44578;SDS011;37422;51.402;0.016;2022-11-24T16:59:01;7.30;;;1.20;;
44578;SDS011;37422;51.402;0.016;2022-11-24T17:01:29;4.68;;;1.25;;
44578;SDS011;37422;51.402;0.016;2022-11-24T17:03:59;9.93;;;2.03;;
44578;SDS011;37422;51.402;0.016;2022-11-24T17:06:27;5.88;;;1.60;;
44578;SDS011;37422;51.402;0.016;2022-11-24T17:08:55;6.13;;;1.50;;
44578;SDS011;37422;51.402;0.016;2022-11-24T17:11:23;5.78;;;1.80;;
44578;SDS011;37422;51.402;0.016;2022-11-24T17:13:52;8.13;;;2.72;;
44578;SDS011;37422;51.402;0.016;2022-11-24T17:16:23;5.95;;;1.98;;
44578;SDS011;37422;51.402;0.016;2022-11-24T17:18:52;8.38;;;1.92;;
44578;SDS011;37422;51.402;0.016;2022-11-24T17:21:20;11.38;;;2.70;;
44578;SDS011;37422;51.402;0.016;2022-11-24T17:23:56;11.40;;;2.08;;
44578;SDS011;37422;51.402;0.016;2022-11-24T17:26:29;11.57;;;2.70;;
44578;SDS011;37422;51.402;0.016;2022-11-24T17:28:57;14.80;;;3.80;;
44578;SDS011;37422;51.402;0.016;2022-11-24T17:31:29;12.43;;;2.35;;
44578;SDS011;37422;51.402;0.016;2022-11-24T17:34:03;17.98;;;3.65;;